createdAt,value
2022-11-29T00:01:01.716Z,85.81
2022-11-29T00:03:28.756Z,85.73
2022-11-29T00:05:55.978Z,86.27
2022-11-29T00:08:23.967Z,86.31
2022-11-29T00:10:50.742Z,86.19
2022-11-29T00:13:18.109Z,86.10
2022-11-29T00:15:44.554Z,86.08
2022-11-29T00:18:11.301Z,86.21
2022-11-29T00:20:39.122Z,86.04
2022-11-29T00:23:05.713Z,86.20
2022-11-29T00:25:32.128Z,85.93
2022-11-29T00:27:58.551Z,86.00
2022-11-29T00:30:25.333Z,86.21
2022-11-29T00:32:51.796Z,86.31
2022-11-29T00:35:18.346Z,86.37
2022-11-29T00:37:45.213Z,86.13
2022-11-29T00:40:12.007Z,86.30
2022-11-29T00:42:38.431Z,86.18
2022-11-29T00:45:05.398Z,86.19
2022-11-29T00:47:31.801Z,86.20
2022-11-29T00:49:58.220Z,86.22
2022-11-29T00:52:24.636Z,86.41
2022-11-29T00:54:51.224Z,86.48
2022-11-29T00:57:17.595Z,86.07
2022-11-29T00:59:44.004Z,86.12
2022-11-29T01:02:10.941Z,86.31
2022-11-29T01:04:37.402Z,86.08
2022-11-29T01:07:03.888Z,86.27
2022-11-29T01:09:30.385Z,86.12
2022-11-29T01:11:56.776Z,86.55
2022-11-29T01:14:23.229Z,86.06
2022-11-29T01:16:49.660Z,86.38
2022-11-29T01:19:16.063Z,86.09
2022-11-29T01:21:42.543Z,86.15
2022-11-29T01:24:08.951Z,86.35
2022-11-29T01:26:35.510Z,86.40
2022-11-29T01:29:01.997Z,86.25
2022-11-29T01:31:35.894Z,86.84
2022-11-29T01:34:03.982Z,86.51
2022-11-29T01:36:31.048Z,86.53
2022-11-29T01:39:00.273Z,86.56
2022-11-29T01:41:29.493Z,86.62
2022-11-29T01:43:58.750Z,86.32
2022-11-29T01:46:26.194Z,86.36
2022-11-29T01:48:57.513Z,86.58
2022-11-29T01:51:25.963Z,86.66
2022-11-29T01:53:53.386Z,86.55
2022-11-29T01:56:20.679Z,86.29
2022-11-29T01:58:47.511Z,86.62
2022-11-29T02:01:14.592Z,86.42
2022-11-29T02:03:41.241Z,86.63
2022-11-29T02:06:07.928Z,86.39
2022-11-29T02:08:41.140Z,87.06
2022-11-29T02:11:22.494Z,87.38
2022-11-29T02:14:20.943Z,87.72
2022-11-29T02:16:56.300Z,86.89
2022-11-29T02:19:59.958Z,87.70
2022-11-29T02:22:50.365Z,87.78
2022-11-29T02:25:50.693Z,87.71
2022-11-29T02:28:19.788Z,87.01
2022-11-29T02:31:10.923Z,87.00
2022-11-29T02:33:52.678Z,87.05
2022-11-29T02:36:31.436Z,86.92
2022-11-29T02:39:13.242Z,87.08
2022-11-29T02:41:45.634Z,86.26
2022-11-29T02:44:36.674Z,86.92
2022-11-29T02:47:06.070Z,86.13
2022-11-29T02:50:07.660Z,87.41
2022-11-29T02:52:37.149Z,86.50
2022-11-29T02:55:15.593Z,87.18
2022-11-29T02:58:09.149Z,87.54
2022-11-29T03:00:41.412Z,86.72
2022-11-29T03:03:36.917Z,87.50
2022-11-29T03:06:28.613Z,87.01
2022-11-29T03:09:30.257Z,87.48
2022-11-29T03:12:15.455Z,87.64
2022-11-29T03:15:08.201Z,87.94
2022-11-29T03:18:00.077Z,87.61
2022-11-29T03:20:49.835Z,87.33
2022-11-29T03:23:19.867Z,86.19
2022-11-29T03:26:01.188Z,86.90
2022-11-29T03:28:45.998Z,86.82
2022-11-29T03:31:25.869Z,87.24
2022-11-29T03:34:32.775Z,87.12
2022-11-29T03:37:11.307Z,86.53
2022-11-29T03:39:45.395Z,87.04
2022-11-29T03:42:19.452Z,86.64
2022-11-29T03:45:28.642Z,87.67
2022-11-29T03:48:07.753Z,87.15
2022-11-29T03:50:50.653Z,87.18
2022-11-29T03:53:38.942Z,86.48
2022-11-29T03:56:30.667Z,87.03
2022-11-29T03:59:28.933Z,87.10
2022-11-29T04:02:23.300Z,87.15
2022-11-29T04:05:23.125Z,87.54
2022-11-29T04:08:14.196Z,87.30
2022-11-29T04:10:52.894Z,87.25
2022-11-29T04:13:41.030Z,87.57
2022-11-29T04:16:21.667Z,86.68
2022-11-29T04:19:00.251Z,86.76
2022-11-29T04:21:32.582Z,86.69
2022-11-29T04:24:17.786Z,86.73
2022-11-29T04:27:34.284Z,87.63
2022-11-29T04:30:16.473Z,87.26
2022-11-29T04:33:16.758Z,86.88
2022-11-29T04:36:01.448Z,86.97
2022-11-29T04:39:02.854Z,87.31
2022-11-29T04:42:11.096Z,87.19
2022-11-29T04:44:50.227Z,86.62
2022-11-29T04:47:38.716Z,87.00
2022-11-29T04:50:18.225Z,86.60
2022-11-29T04:53:08.669Z,86.92
2022-11-29T04:55:44.074Z,86.77
2022-11-29T04:58:34.221Z,86.99
2022-11-29T05:01:09.707Z,86.20
2022-11-29T05:03:46.988Z,86.56
2022-11-29T05:06:29.175Z,87.01
2022-11-29T05:09:04.786Z,86.84
2022-11-29T05:12:04.134Z,87.41
2022-11-29T05:14:49.340Z,87.19
2022-11-29T05:17:53.369Z,86.96
2022-11-29T05:20:28.842Z,86.76
2022-11-29T05:23:20.005Z,87.25
2022-11-29T05:26:07.533Z,86.87
2022-11-29T05:29:03.105Z,86.03
2022-11-29T05:31:48.664Z,86.81
2022-11-29T05:34:42.461Z,86.94
2022-11-29T05:37:15.091Z,86.17
2022-11-29T05:40:17.611Z,86.68
2022-11-29T05:43:02.381Z,86.92
2022-11-29T05:45:41.003Z,86.50
2022-11-29T05:48:14.247Z,86.34
2022-11-29T05:50:47.980Z,86.07
2022-11-29T05:53:31.281Z,86.73
2022-11-29T05:56:26.271Z,86.91
2022-11-29T05:59:07.477Z,86.66
2022-11-29T06:01:55.257Z,86.40
2022-11-29T06:04:33.296Z,86.25
2022-11-29T06:07:20.003Z,86.55
2022-11-29T06:10:00.598Z,85.85
2022-11-29T06:12:31.252Z,85.37
2022-11-29T06:15:17.542Z,86.52
2022-11-29T06:18:03.187Z,86.48
2022-11-29T06:20:35.474Z,85.67
2022-11-29T06:23:10.870Z,85.52
2022-11-29T06:26:16.717Z,86.16
2022-11-29T06:29:04.479Z,85.70
2022-11-29T06:31:39.476Z,85.54
2022-11-29T06:34:27.645Z,85.87
2022-11-29T06:37:19.974Z,86.06
2022-11-29T06:39:46.947Z,84.79
2022-11-29T06:42:13.343Z,85.06
2022-11-29T06:44:40.192Z,85.27
2022-11-29T06:47:23.320Z,85.95
2022-11-29T06:49:58.909Z,85.40
2022-11-29T06:52:42.790Z,86.01
2022-11-29T06:55:24.429Z,86.17
2022-11-29T06:57:53.985Z,85.00
2022-11-29T07:00:30.380Z,85.64
2022-11-29T07:03:06.629Z,85.66
2022-11-29T07:05:36.670Z,85.36
2022-11-29T07:08:13.962Z,86.16
2022-11-29T07:10:42.878Z,85.03
2022-11-29T07:13:15.989Z,85.59
2022-11-29T07:16:31.981Z,86.14
2022-11-29T07:18:58.390Z,84.95
2022-11-29T07:21:59.043Z,86.46
2022-11-29T07:24:49.210Z,85.83
2022-11-29T07:27:57.166Z,85.87
2022-11-29T07:30:52.236Z,86.03
2022-11-29T07:33:48.893Z,86.01
2022-11-29T07:36:38.888Z,86.17
2022-11-29T07:39:08.239Z,84.94
2022-11-29T07:42:25.443Z,86.02
2022-11-29T07:45:00.804Z,85.03
2022-11-29T07:47:31.258Z,85.17
2022-11-29T07:50:00.631Z,85.28
2022-11-29T07:52:28.221Z,85.50
2022-11-29T07:54:56.379Z,85.44
2022-11-29T07:57:22.827Z,85.28
2022-11-29T07:59:49.318Z,85.08
2022-11-29T08:02:26.650Z,86.07
2022-11-29T08:04:53.175Z,85.22
2022-11-29T08:07:19.615Z,85.04
2022-11-29T08:09:46.215Z,84.77
2022-11-29T08:12:13.074Z,84.61
2022-11-29T08:14:39.628Z,84.82
2022-11-29T08:17:06.157Z,84.91
2022-11-29T08:19:32.564Z,84.94
2022-11-29T08:21:58.983Z,84.54
2022-11-29T08:24:26.758Z,84.55
2022-11-29T08:26:53.403Z,84.46
2022-11-29T08:29:20.229Z,84.56
2022-11-29T08:31:53.273Z,84.79
2022-11-29T08:34:21.084Z,84.71
2022-11-29T08:36:49.414Z,84.78
2022-11-29T08:39:16.311Z,84.42
2022-11-29T08:41:43.045Z,84.20
2022-11-29T08:44:09.986Z,84.28
2022-11-29T08:46:55.087Z,84.27
2022-11-29T08:49:21.539Z,84.43
2022-11-29T08:51:47.966Z,84.20
2022-11-29T08:54:14.460Z,84.23
2022-11-29T08:59:27.574Z,84.40
2022-11-29T09:01:54.145Z,84.20
2022-11-29T09:04:20.637Z,84.30
2022-11-29T09:06:49.565Z,84.22
2022-11-29T09:09:16.584Z,84.09
2022-11-29T09:11:45.882Z,84.33
2022-11-29T09:14:17.122Z,83.95
2022-11-29T09:16:43.611Z,84.10
2022-11-29T09:19:10.785Z,84.11
2022-11-29T09:21:37.401Z,84.07
2022-11-29T09:24:06.467Z,84.05
2022-11-29T09:26:35.877Z,84.21
2022-11-29T09:29:04.455Z,83.67
2022-11-29T09:31:31.613Z,83.30
2022-11-29T09:33:58.345Z,82.97
2022-11-29T09:36:28.528Z,82.89
2022-11-29T09:38:58.386Z,82.58
2022-11-29T09:41:52.528Z,83.72
2022-11-29T09:44:18.851Z,82.45
2022-11-29T09:47:17.122Z,83.58
2022-11-29T09:49:52.409Z,82.93
2022-11-29T09:52:40.962Z,83.67
2022-11-29T09:55:29.169Z,83.46
2022-11-29T09:57:59.058Z,82.75
2022-11-29T10:00:26.089Z,82.58
2022-11-29T10:02:58.379Z,82.50
2022-11-29T10:05:47.548Z,83.39
2022-11-29T10:08:16.915Z,82.10
2022-11-29T10:10:47.897Z,82.28
2022-11-29T10:13:23.746Z,82.46
2022-11-29T10:15:56.286Z,82.53
2022-11-29T10:18:35.029Z,81.69
2022-11-29T10:21:11.090Z,82.26
2022-11-29T10:23:46.334Z,82.52
2022-11-29T10:26:13.302Z,81.82
2022-11-29T10:28:44.929Z,82.36
2022-11-29T10:31:27.497Z,83.22
2022-11-29T10:33:56.185Z,81.87
2022-11-29T10:36:22.667Z,82.01
2022-11-29T10:38:51.459Z,82.22
2022-11-29T10:41:22.554Z,82.17
2022-11-29T10:43:50.914Z,81.57
2022-11-29T10:46:30.258Z,82.26
2022-11-29T10:48:59.329Z,81.48
2022-11-29T10:51:25.935Z,81.15
2022-11-29T10:53:54.712Z,81.07
2022-11-29T10:56:31.214Z,81.76
2022-11-29T10:59:08.948Z,82.01
2022-11-29T11:01:44.020Z,81.94
2022-11-29T11:04:17.304Z,82.41
2022-11-29T11:06:51.499Z,82.53
2022-11-29T11:09:26.641Z,82.36
2022-11-29T11:11:57.084Z,82.22
2022-11-29T11:14:26.973Z,82.57
2022-11-29T11:16:54.023Z,82.39
2022-11-29T11:19:31.585Z,82.80
2022-11-29T11:22:00.734Z,82.81
2022-11-29T11:24:30.561Z,82.87
2022-11-29T11:26:57.881Z,82.88
2022-11-29T11:29:43.738Z,83.71
2022-11-29T11:32:20.029Z,83.35
2022-11-29T11:35:00.994Z,83.04
2022-11-29T11:37:32.380Z,82.37
2022-11-29T11:40:01.321Z,82.04
2022-11-29T11:42:40.280Z,82.40
2022-11-29T11:45:37.087Z,83.05
2022-11-29T11:48:14.967Z,82.36
2022-11-29T11:50:50.613Z,82.13
2022-11-29T11:53:37.800Z,82.80
2022-11-29T11:56:08.489Z,81.93
2022-11-29T11:58:49.516Z,83.02
2022-11-29T12:01:25.293Z,82.98
2022-11-29T12:03:51.689Z,82.42
2022-11-29T12:06:37.357Z,81.82
2022-11-29T12:09:27.994Z,83.02
2022-11-29T12:12:03.650Z,82.47
2022-11-29T12:14:46.249Z,82.71
2022-11-29T12:17:22.660Z,82.88
2022-11-29T12:20:07.600Z,83.13
2022-11-29T12:22:46.606Z,82.78
2022-11-29T12:25:23.790Z,83.24
2022-11-29T12:27:51.219Z,82.41
2022-11-29T12:30:20.535Z,82.91
2022-11-29T12:32:59.929Z,82.72
2022-11-29T12:35:53.165Z,83.41
2022-11-29T12:38:39.337Z,83.13
2022-11-29T12:41:32.207Z,83.52
2022-11-29T12:44:15.301Z,83.25
2022-11-29T12:47:02.152Z,82.54
2022-11-29T12:50:01.065Z,83.65
2022-11-29T12:52:41.438Z,83.30
2022-11-29T12:55:28.561Z,84.04
2022-11-29T12:58:13.942Z,82.91
2022-11-29T13:00:58.554Z,83.68
2022-11-29T13:03:36.715Z,83.63
2022-11-29T13:06:17.921Z,83.53
2022-11-29T13:08:50.500Z,83.20
2022-11-29T13:11:27.957Z,84.20
2022-11-29T13:14:40.821Z,84.09
2022-11-29T13:17:04.281Z,84.01
2022-11-29T13:19:39.049Z,83.80
2022-11-29T13:22:46.426Z,84.52
2022-11-29T13:25:24.390Z,84.35
2022-11-29T13:28:28.483Z,84.49
2022-11-29T13:31:02.308Z,83.31
2022-11-29T13:33:42.655Z,83.29
2022-11-29T13:36:21.238Z,83.93
2022-11-29T13:39:02.617Z,84.27
2022-11-29T13:41:48.272Z,84.52
2022-11-29T13:44:27.300Z,84.46
2022-11-29T13:47:14.984Z,84.81
2022-11-29T13:49:53.418Z,84.00
2022-11-29T13:52:38.397Z,83.48
2022-11-29T13:55:04.860Z,82.84
2022-11-29T14:00:44.895Z,83.50
2022-11-29T14:03:23.401Z,84.25
2022-11-29T14:06:03.493Z,83.48
2022-11-29T14:08:47.672Z,83.08
2022-11-29T14:11:20.785Z,83.39
2022-11-29T14:14:02.758Z,84.29
2022-11-29T14:16:46.373Z,84.34
2022-11-29T14:19:23.783Z,84.20
2022-11-29T14:22:17.268Z,84.75
2022-11-29T14:24:56.771Z,84.51
2022-11-29T14:27:23.116Z,83.83
2022-11-29T14:29:49.678Z,83.78
2022-11-29T14:32:46.379Z,84.93
2022-11-29T14:35:13.284Z,83.99
2022-11-29T14:38:19.173Z,85.40
2022-11-29T14:40:59.935Z,84.80
2022-11-29T14:43:38.186Z,85.14
2022-11-29T14:46:16.766Z,85.00
2022-11-29T14:48:55.764Z,84.60
2022-11-29T14:51:25.908Z,84.49
2022-11-29T14:54:06.491Z,84.94
2022-11-29T14:56:34.927Z,84.21
2022-11-29T14:59:38.891Z,85.47
2022-11-29T15:02:20.984Z,84.48
2022-11-29T15:04:50.009Z,84.32
2022-11-29T15:07:23.915Z,84.48
2022-11-29T15:09:50.936Z,84.47
2022-11-29T15:12:21.524Z,84.92
2022-11-29T15:15:18.605Z,85.52
2022-11-29T15:18:12.220Z,85.79
2022-11-29T15:21:14.065Z,85.54
2022-11-29T15:23:42.920Z,84.76
2022-11-29T15:26:21.124Z,85.76
2022-11-29T15:28:48.104Z,85.08
2022-11-29T15:31:18.740Z,85.29
2022-11-29T15:33:48.053Z,85.03
2022-11-29T15:36:21.051Z,85.59
2022-11-29T15:38:48.580Z,85.17
2022-11-29T15:41:35.460Z,86.44
2022-11-29T15:44:05.570Z,85.01
2022-11-29T15:46:34.577Z,85.17
2022-11-29T15:49:25.719Z,86.51
2022-11-29T15:52:01.003Z,85.67
2022-11-29T15:54:37.123Z,85.77
2022-11-29T15:57:13.839Z,85.89
2022-11-29T15:59:48.562Z,86.15
2022-11-29T16:02:20.853Z,85.35
2022-11-29T16:04:50.415Z,85.27
2022-11-29T16:07:20.213Z,85.34
2022-11-29T16:10:10.505Z,86.39
2022-11-29T16:12:55.645Z,86.25
2022-11-29T16:15:37.202Z,86.32
2022-11-29T16:18:14.284Z,85.42
2022-11-29T16:20:40.824Z,85.21
2022-11-29T16:23:15.462Z,86.20
2022-11-29T16:25:59.117Z,86.13
2022-11-29T16:28:31.356Z,85.55
2022-11-29T16:30:58.487Z,85.35
2022-11-29T16:33:25.008Z,85.25
2022-11-29T16:36:02.352Z,85.34
2022-11-29T16:38:28.912Z,85.42
2022-11-29T16:41:34.922Z,86.28
2022-11-29T16:44:06.063Z,85.46
2022-11-29T16:46:41.871Z,86.09
2022-11-29T16:49:36.016Z,86.67
2022-11-29T16:52:04.315Z,85.32
2022-11-29T16:54:35.519Z,85.65
2022-11-29T16:57:06.249Z,85.72
2022-11-29T16:59:36.525Z,85.21
2022-11-29T17:02:05.763Z,86.09
2022-11-29T17:04:32.315Z,84.97
2022-11-29T17:06:59.515Z,85.22
2022-11-29T17:09:29.498Z,85.55
2022-11-29T17:11:56.782Z,85.45
2022-11-29T17:14:23.431Z,85.27
2022-11-29T17:16:50.408Z,85.14
2022-11-29T17:19:18.236Z,85.28
2022-11-29T17:21:45.344Z,85.16
2022-11-29T17:24:15.566Z,85.37
2022-11-29T17:26:42.559Z,85.89
2022-11-29T17:29:14.258Z,85.14
2022-11-29T17:31:42.292Z,84.95
2022-11-29T17:34:08.917Z,84.84
2022-11-29T17:36:35.389Z,84.79
2022-11-29T17:39:03.329Z,85.30
2022-11-29T17:41:33.949Z,85.35
2022-11-29T17:44:00.718Z,85.06
2022-11-29T17:46:32.449Z,85.47
2022-11-29T17:49:00.591Z,85.26
2022-11-29T17:54:13.714Z,85.31
2022-11-29T17:56:40.119Z,85.48
2022-11-29T17:59:06.577Z,85.32
2022-11-29T18:01:35.602Z,85.31
2022-11-29T18:04:03.982Z,85.25
2022-11-29T18:06:37.804Z,85.79
2022-11-29T18:09:05.920Z,85.30
2022-11-29T18:11:43.291Z,85.60
2022-11-29T18:14:15.353Z,85.24
2022-11-29T18:16:41.974Z,85.46
2022-11-29T18:19:11.806Z,85.60
2022-11-29T18:21:38.434Z,85.11
2022-11-29T18:24:06.021Z,85.24
2022-11-29T18:26:34.105Z,85.47
2022-11-29T18:29:00.840Z,85.20
2022-11-29T18:31:33.313Z,85.46
2022-11-29T18:34:02.190Z,85.48
2022-11-29T18:36:35.017Z,85.87
2022-11-29T18:39:05.285Z,85.39
2022-11-29T18:41:32.080Z,86.15
2022-11-29T18:44:05.124Z,85.13
2022-11-29T18:46:36.759Z,85.17
2022-11-29T18:49:05.284Z,85.32
2022-11-29T18:51:32.290Z,84.95
2022-11-29T18:53:59.234Z,85.04
2022-11-29T18:56:28.263Z,85.08
2022-11-29T18:58:58.461Z,85.01
2022-11-29T19:01:27.532Z,85.01
2022-11-29T19:03:56.087Z,85.20
2022-11-29T19:06:25.250Z,85.17
2022-11-29T19:08:52.739Z,85.24
2022-11-29T19:11:21.855Z,85.26
2022-11-29T19:13:55.079Z,85.40
2022-11-29T19:16:25.331Z,85.05
2022-11-29T19:18:53.001Z,85.84
2022-11-29T19:21:20.741Z,84.98
2022-11-29T19:23:55.193Z,85.64
2022-11-29T19:26:23.123Z,85.28
2022-11-29T19:28:49.900Z,85.32
2022-11-29T19:31:18.890Z,85.36
2022-11-29T19:33:46.486Z,85.39
2022-11-29T19:36:22.314Z,85.68
2022-11-29T19:38:53.340Z,85.47
2022-11-29T19:41:22.048Z,85.51
2022-11-29T19:43:48.971Z,85.39
2022-11-29T19:46:18.904Z,85.48
2022-11-29T19:48:45.964Z,85.41
2022-11-29T19:51:16.507Z,85.43
2022-11-29T19:53:43.688Z,85.44
2022-11-29T19:56:15.734Z,86.14
2022-11-29T19:58:43.119Z,85.32
2022-11-29T20:01:12.249Z,85.81
2022-11-29T20:03:39.489Z,85.81
2022-11-29T20:06:06.770Z,85.67
2022-11-29T20:08:33.524Z,85.79
2022-11-29T20:11:20.710Z,86.70
2022-11-29T20:13:53.145Z,85.89
2022-11-29T20:16:20.108Z,85.52
2022-11-29T20:18:51.237Z,85.70
2022-11-29T20:21:20.934Z,85.54
2022-11-29T20:23:48.916Z,85.75
2022-11-29T20:26:18.976Z,85.88
2022-11-29T20:28:47.301Z,85.45
2022-11-29T20:31:16.406Z,85.73
2022-11-29T20:33:44.922Z,85.70
2022-11-29T20:36:47.837Z,86.89
2022-11-29T20:39:23.893Z,86.28
2022-11-29T20:41:53.464Z,86.00
2022-11-29T20:44:24.205Z,85.63
2022-11-29T20:46:50.903Z,85.55
2022-11-29T20:49:18.158Z,85.42
2022-11-29T20:51:53.246Z,86.13
2022-11-29T20:54:20.110Z,85.51
2022-11-29T20:56:46.577Z,85.45
2022-11-29T20:59:13.078Z,85.50
2022-11-29T21:01:39.705Z,85.35
2022-11-29T21:04:06.277Z,85.34
2022-11-29T21:06:37.654Z,86.01
2022-11-29T21:09:04.771Z,85.34
2022-11-29T21:11:32.207Z,85.60
2022-11-29T21:13:58.850Z,85.75
2022-11-29T21:16:29.437Z,85.98
2022-11-29T21:18:59.959Z,86.01
2022-11-29T21:21:30.165Z,85.59
2022-11-29T21:23:59.322Z,86.36
2022-11-29T21:26:44.591Z,86.67
2022-11-29T21:29:14.150Z,85.76
2022-11-29T21:31:41.091Z,85.54
2022-11-29T21:34:08.573Z,85.33
2022-11-29T21:36:36.897Z,85.40
2022-11-29T21:39:05.613Z,85.44
2022-11-29T21:41:32.344Z,85.39
2022-11-29T21:44:06.713Z,85.37
2022-11-29T21:46:34.321Z,85.49
2022-11-29T21:49:00.799Z,85.61
2022-11-29T21:51:27.211Z,85.72
2022-11-29T21:53:53.666Z,85.52
2022-11-29T21:56:20.051Z,85.38
2022-11-29T21:58:46.475Z,85.30
2022-11-29T22:01:16.738Z,85.57
2022-11-29T22:03:43.525Z,85.96
2022-11-29T22:06:12.166Z,85.05
2022-11-29T22:08:40.876Z,85.26
2022-11-29T22:11:13.307Z,85.90
2022-11-29T22:14:01.503Z,85.54
2022-11-29T22:16:29.364Z,85.18
2022-11-29T22:18:55.990Z,85.39
2022-11-29T22:21:22.576Z,85.31
2022-11-29T22:23:48.967Z,85.11
2022-11-29T22:26:15.562Z,85.35
2022-11-29T22:28:42.020Z,85.16
2022-11-29T22:31:11.084Z,85.09
2022-11-29T22:33:38.626Z,85.22
2022-11-29T22:36:11.080Z,85.35
2022-11-29T22:38:38.512Z,85.07
2022-11-29T22:41:08.038Z,85.20
2022-11-29T22:43:34.912Z,85.21
2022-11-29T22:46:05.646Z,85.36
2022-11-29T22:48:38.188Z,84.96
2022-11-29T22:51:17.366Z,85.40
2022-11-29T22:53:54.221Z,85.61
2022-11-29T22:56:22.114Z,84.96
2022-11-29T22:58:48.618Z,84.95
2022-11-29T23:01:17.334Z,85.01
2022-11-29T23:03:48.062Z,85.11
2022-11-29T23:06:17.047Z,85.16
2022-11-29T23:08:44.812Z,85.19
2022-11-29T23:11:13.932Z,85.13
2022-11-29T23:13:41.866Z,84.88
2022-11-29T23:16:11.889Z,84.91
2022-11-29T23:18:39.779Z,84.94
2022-11-29T23:21:12.530Z,85.47
2022-11-29T23:23:38.966Z,84.87
2022-11-29T23:26:06.835Z,85.11
2022-11-29T23:28:34.678Z,84.93
2022-11-29T23:31:01.402Z,84.94
2022-11-29T23:33:28.324Z,84.65
2022-11-29T23:36:03.339Z,85.52
2022-11-29T23:38:29.786Z,84.73
2022-11-29T23:40:56.825Z,85.01
2022-11-29T23:43:23.644Z,84.78
2022-11-29T23:45:50.811Z,84.76
2022-11-29T23:48:17.467Z,84.72
2022-11-29T23:50:43.878Z,84.84
2022-11-29T23:53:13.187Z,85.10
2022-11-29T23:55:39.904Z,84.95
2022-11-29T23:58:09.451Z,85.07
